createdAt,value
2023-04-15T00:01:02.763Z,11.85
2023-04-15T00:03:29.962Z,10.95
2023-04-15T00:05:58.491Z,12.93
2023-04-15T00:08:25.528Z,12.68
2023-04-15T00:10:52.071Z,10.02
2023-04-15T00:13:18.820Z,10.50
2023-04-15T00:15:45.371Z,11.45
2023-04-15T00:18:11.990Z,11.75
2023-04-15T00:20:38.594Z,14.07
2023-04-15T00:23:05.724Z,11.98
2023-04-15T00:25:32.457Z,9.90
2023-04-15T00:27:59.066Z,10.02
2023-04-15T00:30:26.635Z,11.80
2023-04-15T00:32:53.805Z,11.57
2023-04-15T00:35:20.795Z,12.52
2023-04-15T00:37:47.442Z,14.25
2023-04-15T00:40:14.143Z,13.85
2023-04-15T00:42:41.188Z,15.45
2023-04-15T00:45:08.828Z,9.55
2023-04-15T00:47:37.758Z,10.45
2023-04-15T00:50:05.130Z,12.52
2023-04-15T00:52:32.827Z,15.43
2023-04-15T00:55:00.005Z,12.38
2023-04-15T00:57:28.559Z,12.32
2023-04-15T00:59:56.915Z,11.20
2023-04-15T01:02:24.121Z,10.43
2023-04-15T01:04:51.380Z,10.30
2023-04-15T01:07:18.018Z,9.27
2023-04-15T01:09:45.728Z,11.38
2023-04-15T01:12:15.559Z,9.52
2023-04-15T01:14:42.430Z,9.73
2023-04-15T01:17:09.091Z,10.75
2023-04-15T01:19:37.147Z,10.23
2023-04-15T01:22:05.324Z,11.75
2023-04-15T01:24:33.239Z,12.13
2023-04-15T01:26:59.997Z,12.35
2023-04-15T01:29:27.475Z,13.32
2023-04-15T01:31:56.201Z,10.48
2023-04-15T01:34:23.496Z,11.70
2023-04-15T01:36:50.134Z,13.27
2023-04-15T01:39:17.014Z,11.45
2023-04-15T01:41:43.950Z,10.88
2023-04-15T01:44:10.521Z,11.60
2023-04-15T01:46:37.197Z,11.32
2023-04-15T01:49:03.906Z,9.10
2023-04-15T01:51:30.505Z,12.02
2023-04-15T01:53:57.120Z,12.88
2023-04-15T01:56:26.710Z,11.63
2023-04-15T01:58:53.673Z,11.65
2023-04-15T02:01:20.850Z,11.93
2023-04-15T02:03:48.382Z,12.50
2023-04-15T02:06:15.240Z,11.75
2023-04-15T02:08:41.799Z,12.25
2023-04-15T02:11:08.509Z,10.00
2023-04-15T02:13:35.279Z,12.75
2023-04-15T02:16:01.886Z,10.55
2023-04-15T02:18:28.667Z,14.13
2023-04-15T02:20:57.432Z,11.43
2023-04-15T02:23:24.474Z,11.10
2023-04-15T02:25:53.831Z,12.73
2023-04-15T02:28:21.221Z,12.25
2023-04-15T02:30:50.954Z,11.50
2023-04-15T02:33:18.071Z,10.70
2023-04-15T02:35:45.546Z,13.00
2023-04-15T02:38:12.440Z,11.00
2023-04-15T02:40:39.009Z,11.35
2023-04-15T02:43:07.124Z,12.65
2023-04-15T02:45:33.970Z,10.95
2023-04-15T02:48:04.056Z,9.88
2023-04-15T02:50:31.712Z,11.20
2023-04-15T02:52:58.475Z,11.23
2023-04-15T02:55:25.072Z,12.23
2023-04-15T02:57:51.632Z,10.32
2023-04-15T03:00:18.439Z,9.73
2023-04-15T03:02:47.074Z,11.00
2023-04-15T03:05:15.071Z,11.23
2023-04-15T03:07:41.748Z,12.02
2023-04-15T03:10:08.990Z,11.25
2023-04-15T03:12:35.758Z,11.85
2023-04-15T03:15:02.316Z,9.77
2023-04-15T03:17:28.926Z,11.85
2023-04-15T03:19:55.665Z,10.98
2023-04-15T03:22:22.411Z,14.13
2023-04-15T03:24:48.960Z,11.35
2023-04-15T03:27:15.432Z,11.50
2023-04-15T03:29:41.921Z,13.20
2023-04-15T03:32:08.569Z,11.77
2023-04-15T03:34:35.083Z,10.18
2023-04-15T03:37:01.702Z,11.60
2023-04-15T03:39:28.309Z,12.88
2023-04-15T03:41:54.849Z,14.27
2023-04-15T03:44:21.555Z,10.23
2023-04-15T03:46:48.224Z,11.40
2023-04-15T03:49:14.814Z,11.20
2023-04-15T03:51:41.678Z,12.27
2023-04-15T03:54:08.220Z,10.65
2023-04-15T03:56:34.694Z,9.45
2023-04-15T03:59:01.441Z,10.00
2023-04-15T04:01:28.184Z,11.50
2023-04-15T04:03:54.827Z,10.85
2023-04-15T04:06:21.728Z,11.35
2023-04-15T04:08:48.331Z,12.05
2023-04-15T04:11:14.922Z,10.05
2023-04-15T04:13:41.905Z,12.18
2023-04-15T04:16:08.656Z,12.98
2023-04-15T04:18:35.448Z,11.20
2023-04-15T04:21:02.098Z,10.05
2023-04-15T04:23:28.756Z,10.70
2023-04-15T04:25:55.387Z,11.63
2023-04-15T04:28:22.310Z,9.90
2023-04-15T04:30:48.945Z,10.80
2023-04-15T04:33:15.727Z,9.98
2023-04-15T04:35:42.276Z,12.82
2023-04-15T04:38:08.852Z,11.02
2023-04-15T04:40:35.706Z,11.18
2023-04-15T04:43:02.355Z,11.27
2023-04-15T04:45:28.868Z,10.80
2023-04-15T04:47:55.658Z,9.48
2023-04-15T04:50:22.190Z,11.27
2023-04-15T04:52:49.009Z,10.93
2023-04-15T04:55:16.016Z,11.30
2023-04-15T04:57:42.652Z,10.55
2023-04-15T05:00:09.727Z,13.27
2023-04-15T05:02:36.970Z,9.55
2023-04-15T05:05:03.819Z,10.48
2023-04-15T05:07:30.546Z,11.50
2023-04-15T05:09:57.194Z,12.35
2023-04-15T05:12:23.783Z,11.65
2023-04-15T05:14:50.261Z,10.30
2023-04-15T05:17:16.862Z,11.73
2023-04-15T05:19:43.352Z,10.50
2023-04-15T05:22:10.020Z,12.75
2023-04-15T05:24:36.677Z,10.50
2023-04-15T05:27:03.707Z,10.63
2023-04-15T05:29:30.741Z,14.32
2023-04-15T05:31:57.476Z,11.48
2023-04-15T05:34:23.999Z,13.73
2023-04-15T05:36:50.612Z,10.98
2023-04-15T05:39:17.155Z,12.43
2023-04-15T05:41:43.796Z,11.00
2023-04-15T05:44:10.318Z,16.23
2023-04-15T05:46:37.267Z,16.13
2023-04-15T05:49:04.156Z,13.18
2023-04-15T05:51:31.206Z,12.57
2023-04-15T05:53:57.708Z,15.02
2023-04-15T05:56:24.924Z,12.25
2023-04-15T05:58:53.347Z,15.45
2023-04-15T06:01:20.740Z,13.98
2023-04-15T06:03:47.573Z,14.27
2023-04-15T06:06:15.528Z,13.05
2023-04-15T06:08:42.104Z,14.98
2023-04-15T06:11:08.672Z,12.70
2023-04-15T06:13:35.340Z,14.68
2023-04-15T06:16:02.265Z,12.90
2023-04-15T06:18:28.758Z,15.43
2023-04-15T06:20:55.354Z,12.70
2023-04-15T06:23:22.029Z,13.00
2023-04-15T06:25:48.931Z,12.68
2023-04-15T06:28:15.734Z,15.85
2023-04-15T06:30:43.004Z,16.35
2023-04-15T06:33:10.795Z,17.08
2023-04-15T06:35:37.894Z,21.77
2023-04-15T06:38:04.463Z,17.75
2023-04-15T06:40:33.158Z,20.88
2023-04-15T06:42:59.780Z,17.90
2023-04-15T06:45:26.691Z,17.95
2023-04-15T06:47:53.729Z,18.20
2023-04-15T06:50:20.346Z,15.50
2023-04-15T06:52:47.088Z,17.35
2023-04-15T06:55:14.774Z,13.80
2023-04-15T06:57:41.607Z,13.68
2023-04-15T07:00:08.740Z,14.68
2023-04-15T07:02:35.770Z,16.55
2023-04-15T07:05:02.449Z,15.77
2023-04-15T07:07:29.045Z,15.48
2023-04-15T07:09:55.778Z,13.52
2023-04-15T07:12:22.379Z,13.85
2023-04-15T07:14:49.678Z,14.60
2023-04-15T07:17:16.630Z,14.57
2023-04-15T07:19:43.228Z,13.52
2023-04-15T07:22:10.094Z,13.52
2023-04-15T07:24:36.885Z,15.02
2023-04-15T07:27:04.375Z,14.18
2023-04-15T07:29:31.471Z,15.18
2023-04-15T07:31:58.159Z,13.80
2023-04-15T07:34:24.833Z,13.35
2023-04-15T07:36:52.092Z,13.70
2023-04-15T07:39:19.148Z,14.73
2023-04-15T07:41:46.566Z,16.15
2023-04-15T07:44:13.360Z,15.50
2023-04-15T07:46:39.963Z,16.00
2023-04-15T07:49:07.837Z,13.80
2023-04-15T07:51:34.528Z,14.45
2023-04-15T07:54:00.958Z,12.57
2023-04-15T07:56:27.848Z,12.90
2023-04-15T07:58:54.343Z,10.98
2023-04-15T08:01:21.194Z,9.35
2023-04-15T08:03:48.586Z,13.30
2023-04-15T08:06:15.243Z,11.80
2023-04-15T08:08:41.812Z,9.98
2023-04-15T08:11:09.178Z,10.43
2023-04-15T08:13:36.093Z,12.07
2023-04-15T08:16:19.022Z,11.02
2023-04-15T08:18:47.341Z,12.00
2023-04-15T08:21:14.029Z,11.52
2023-04-15T08:23:41.061Z,9.23
2023-04-15T08:26:08.746Z,11.18
2023-04-15T08:28:36.271Z,8.52
2023-04-15T08:31:02.801Z,9.77
2023-04-15T08:33:29.490Z,10.02
2023-04-15T08:35:56.079Z,7.97
2023-04-15T08:38:22.847Z,8.95
2023-04-15T08:40:49.692Z,9.10
2023-04-15T08:43:26.548Z,7.80
2023-04-15T08:45:53.609Z,7.32
2023-04-15T08:48:20.945Z,8.43
2023-04-15T08:50:48.827Z,8.35
2023-04-15T08:53:16.430Z,7.65
2023-04-15T08:55:48.303Z,7.80
2023-04-15T08:58:15.749Z,9.93
2023-04-15T09:00:42.622Z,9.38
2023-04-15T09:03:09.720Z,8.18
2023-04-15T09:05:37.862Z,8.05
2023-04-15T09:08:05.756Z,8.57
2023-04-15T09:10:33.540Z,9.65
2023-04-15T09:13:02.209Z,8.63
2023-04-15T09:15:29.938Z,8.18
2023-04-15T09:17:57.136Z,8.85
2023-04-15T09:20:24.167Z,9.23
2023-04-15T09:22:52.118Z,7.13
2023-04-15T09:25:21.523Z,6.57
2023-04-15T09:27:56.852Z,7.45
2023-04-15T09:30:23.930Z,7.95
2023-04-15T09:32:56.733Z,5.45
2023-04-15T09:35:24.495Z,7.70
2023-04-15T09:37:51.431Z,7.43
2023-04-15T09:40:44.943Z,6.47
2023-04-15T09:43:14.730Z,6.00
2023-04-15T09:45:51.682Z,7.25
2023-04-15T09:48:27.374Z,7.07
2023-04-15T09:50:54.897Z,7.53
2023-04-15T09:53:23.677Z,9.43
2023-04-15T09:55:54.775Z,7.07
2023-04-15T09:58:29.039Z,7.00
2023-04-15T10:00:57.603Z,6.53
2023-04-15T10:03:29.345Z,6.55
2023-04-15T10:05:57.662Z,6.25
2023-04-15T10:08:27.054Z,8.07
2023-04-15T10:10:54.211Z,10.40
2023-04-15T10:13:25.675Z,7.43
2023-04-15T10:16:05.568Z,6.63
2023-04-15T10:18:35.638Z,5.43
2023-04-15T10:21:02.533Z,5.90
2023-04-15T10:23:29.330Z,5.50
2023-04-15T10:25:56.891Z,7.40
2023-04-15T10:28:23.241Z,6.20
2023-04-15T10:30:50.050Z,5.93
2023-04-15T10:33:24.519Z,5.57
2023-04-15T10:35:52.627Z,6.88
2023-04-15T10:38:42.653Z,7.13
2023-04-15T10:41:27.958Z,7.45
2023-04-15T10:43:56.865Z,5.95
2023-04-15T10:46:44.903Z,5.53
2023-04-15T10:49:16.993Z,6.82
2023-04-15T10:51:45.938Z,5.63
2023-04-15T10:54:16.318Z,6.18
2023-04-15T10:56:44.613Z,6.75
2023-04-15T10:59:11.534Z,6.07
2023-04-15T11:01:51.802Z,4.93
2023-04-15T11:04:57.659Z,5.10
2023-04-15T11:07:38.576Z,6.45
2023-04-15T11:10:31.344Z,4.97
2023-04-15T11:12:59.816Z,6.03
2023-04-15T11:15:32.167Z,4.70
2023-04-15T11:18:08.335Z,4.38
2023-04-15T11:20:35.531Z,5.65
2023-04-15T11:23:13.419Z,5.88
2023-04-15T11:25:43.171Z,4.93
2023-04-15T11:28:11.366Z,4.78
2023-04-15T11:30:39.912Z,4.88
2023-04-15T11:33:09.284Z,5.05
2023-04-15T11:35:36.187Z,6.22
2023-04-15T11:38:09.124Z,5.78
2023-04-15T11:40:36.297Z,4.80
2023-04-15T11:43:09.812Z,8.40
2023-04-15T11:45:38.599Z,7.75
2023-04-15T11:48:10.500Z,6.95
2023-04-15T11:50:40.595Z,5.88
2023-04-15T11:53:09.510Z,4.80
2023-04-15T11:55:50.926Z,6.22
2023-04-15T11:58:23.362Z,4.85
2023-04-15T12:01:07.924Z,3.88
2023-04-15T12:03:47.144Z,5.45
2023-04-15T12:06:20.990Z,4.72
2023-04-15T12:09:02.891Z,5.55
2023-04-15T12:11:31.018Z,6.30
2023-04-15T12:13:59.440Z,5.00
2023-04-15T12:16:28.002Z,10.80
2023-04-15T12:18:57.699Z,2.45
2023-04-15T12:21:33.685Z,4.25
2023-04-15T12:24:03.554Z,4.22
2023-04-15T12:26:33.633Z,4.65
2023-04-15T12:29:10.962Z,3.55
2023-04-15T12:31:38.022Z,4.35
2023-04-15T12:34:08.532Z,5.07
2023-04-15T12:36:38.035Z,3.42
2023-04-15T12:39:05.391Z,3.85
2023-04-15T12:41:33.108Z,4.45
2023-04-15T12:43:59.766Z,6.30
2023-04-15T12:46:27.236Z,5.07
2023-04-15T12:48:53.887Z,3.85
2023-04-15T12:51:23.194Z,4.88
2023-04-15T12:53:50.115Z,4.63
2023-04-15T12:56:17.155Z,6.10
2023-04-15T12:58:43.639Z,3.63
2023-04-15T13:01:11.285Z,6.82
2023-04-15T13:03:39.018Z,4.45
2023-04-15T13:06:06.133Z,6.25
2023-04-15T13:08:33.070Z,4.07
2023-04-15T13:10:59.686Z,2.80
2023-04-15T13:13:27.353Z,4.82
2023-04-15T13:15:53.894Z,3.40
2023-04-15T13:18:20.569Z,3.40
2023-04-15T13:20:47.123Z,4.82
2023-04-15T13:23:13.603Z,5.07
2023-04-15T13:25:40.040Z,7.03
2023-04-15T13:28:06.667Z,5.25
2023-04-15T13:30:33.210Z,5.35
2023-04-15T13:32:59.883Z,3.85
2023-04-15T13:35:26.526Z,6.22
2023-04-15T13:37:55.168Z,3.45
2023-04-15T13:40:21.901Z,4.57
2023-04-15T13:42:48.720Z,5.18
2023-04-15T13:45:16.208Z,14.52
2023-04-15T13:47:42.888Z,4.97
2023-04-15T13:50:10.072Z,3.50
2023-04-15T13:52:36.589Z,5.15
2023-04-15T13:55:08.381Z,3.45
2023-04-15T13:57:46.719Z,2.83
2023-04-15T14:00:14.060Z,4.40
2023-04-15T14:02:42.326Z,4.13
2023-04-15T14:05:09.501Z,1.67
2023-04-15T14:07:36.598Z,2.80
2023-04-15T14:10:03.407Z,2.70
2023-04-15T14:12:29.890Z,2.42
2023-04-15T14:14:56.461Z,6.50
2023-04-15T14:17:23.064Z,2.22
2023-04-15T14:19:49.547Z,2.53
2023-04-15T14:22:16.362Z,3.40
2023-04-15T14:24:42.851Z,4.68
2023-04-15T14:27:09.570Z,5.78
2023-04-15T14:29:36.165Z,8.57
2023-04-15T14:32:11.392Z,4.85
2023-04-15T14:34:39.021Z,5.10
2023-04-15T14:37:05.608Z,4.95
2023-04-15T14:39:32.179Z,4.18
2023-04-15T14:41:59.011Z,3.80
2023-04-15T14:44:25.755Z,4.72
2023-04-15T14:46:52.317Z,7.15
2023-04-15T14:49:19.999Z,4.03
2023-04-15T14:51:46.633Z,4.95
2023-04-15T14:54:13.174Z,5.25
2023-04-15T14:56:39.744Z,4.43
2023-04-15T14:59:06.333Z,5.72
2023-04-15T15:01:34.290Z,5.93
2023-04-15T15:04:01.387Z,7.53
2023-04-15T15:06:28.013Z,6.20
2023-04-15T15:08:54.456Z,7.07
2023-04-15T15:11:21.073Z,5.93
2023-04-15T15:13:47.558Z,2.42
2023-04-15T15:16:14.737Z,3.17
2023-04-15T15:18:41.427Z,2.28
2023-04-15T15:21:07.954Z,4.72
2023-04-15T15:23:34.495Z,5.68
2023-04-15T15:26:01.303Z,6.47
2023-04-15T15:28:27.868Z,3.22
2023-04-15T15:30:54.906Z,4.38
2023-04-15T15:33:21.644Z,4.30
2023-04-15T15:35:48.161Z,2.70
2023-04-15T15:38:14.970Z,5.80
2023-04-15T15:40:41.661Z,3.47
2023-04-15T15:43:08.404Z,4.93
2023-04-15T15:45:35.608Z,6.45
2023-04-15T15:48:02.226Z,7.13
2023-04-15T15:50:28.874Z,5.50
2023-04-15T15:52:55.744Z,6.43
2023-04-15T15:55:23.454Z,5.85
2023-04-15T15:57:50.054Z,4.55
2023-04-15T16:00:16.708Z,10.88
2023-04-15T16:05:13.365Z,9.63
2023-04-15T16:07:39.918Z,6.25
2023-04-15T16:10:07.098Z,6.78
2023-04-15T16:12:35.035Z,4.45
2023-04-15T16:15:01.851Z,7.75
2023-04-15T16:17:28.417Z,5.65
2023-04-15T16:20:00.100Z,9.73
2023-04-15T16:22:27.731Z,8.77
2023-04-15T16:24:54.335Z,5.38
2023-04-15T16:27:21.004Z,4.15
2023-04-15T16:29:47.759Z,6.43
2023-04-15T16:32:14.469Z,7.05
2023-04-15T16:34:41.382Z,6.40
2023-04-15T16:37:07.963Z,5.78
2023-04-15T16:39:34.575Z,5.55
2023-04-15T16:42:02.619Z,4.50
2023-04-15T16:44:30.080Z,4.80
2023-04-15T16:46:56.832Z,4.82
2023-04-15T16:49:23.379Z,9.25
2023-04-15T16:51:49.860Z,7.68
2023-04-15T16:54:16.429Z,8.63
2023-04-15T16:56:42.958Z,4.85
2023-04-15T16:59:09.512Z,5.90
2023-04-15T17:01:39.597Z,6.78
2023-04-15T17:04:07.332Z,3.47
2023-04-15T17:06:33.975Z,9.18
2023-04-15T17:09:00.630Z,5.72
2023-04-15T17:11:28.219Z,2.85
2023-04-15T17:13:54.765Z,5.10
2023-04-15T17:16:21.656Z,7.50
2023-04-15T17:18:50.214Z,5.32
2023-04-15T17:21:17.593Z,5.28
2023-04-15T17:23:44.288Z,5.43
2023-04-15T17:26:11.185Z,3.08
2023-04-15T17:28:38.059Z,7.78
2023-04-15T17:31:05.089Z,4.95
2023-04-15T17:34:00.317Z,6.22
2023-04-15T17:36:18.329Z,7.47
2023-04-15T17:38:45.559Z,7.80
2023-04-15T17:41:12.222Z,4.78
2023-04-15T17:43:38.788Z,5.88
2023-04-15T17:46:07.227Z,5.43
2023-04-15T17:48:34.326Z,6.80
2023-04-15T17:51:01.031Z,6.80
2023-04-15T17:53:27.693Z,4.63
2023-04-15T17:55:54.463Z,10.68
2023-04-15T17:58:21.297Z,7.93
2023-04-15T18:00:48.338Z,6.55
2023-04-15T18:03:15.532Z,16.95
2023-04-15T18:05:42.804Z,9.50
2023-04-15T18:08:09.697Z,6.22
2023-04-15T18:10:36.983Z,7.22
2023-04-15T18:13:04.761Z,12.75
2023-04-15T18:15:31.697Z,7.43
2023-04-15T18:17:59.124Z,8.68
2023-04-15T18:20:25.777Z,5.38
2023-04-15T18:22:52.698Z,5.80
2023-04-15T18:25:19.380Z,4.00
2023-04-15T18:27:45.940Z,4.22
2023-04-15T18:30:12.892Z,3.88
2023-04-15T18:32:39.638Z,6.80
2023-04-15T18:35:06.896Z,4.20
2023-04-15T18:37:33.514Z,5.57
2023-04-15T18:40:00.053Z,7.45
2023-04-15T18:42:26.837Z,4.03
2023-04-15T18:44:53.901Z,5.03
2023-04-15T18:47:20.658Z,5.43
2023-04-15T18:49:47.200Z,9.15
2023-04-15T18:52:13.939Z,6.72
2023-04-15T18:54:40.433Z,3.88
2023-04-15T18:57:07.026Z,8.07
2023-04-15T18:59:33.927Z,9.30
2023-04-15T19:02:01.338Z,3.08
2023-04-15T19:04:29.494Z,6.78
2023-04-15T19:06:56.453Z,4.38
2023-04-15T19:09:23.051Z,3.30
2023-04-15T19:11:49.692Z,4.20
2023-04-15T19:14:17.756Z,8.48
2023-04-15T19:16:44.444Z,2.80
2023-04-15T19:19:14.496Z,4.60
2023-04-15T19:21:41.682Z,3.63
2023-04-15T19:24:08.290Z,7.50
2023-04-15T19:26:34.831Z,7.72
2023-04-15T19:29:01.373Z,8.75
2023-04-15T19:31:27.952Z,3.10
2023-04-15T19:33:54.461Z,3.40
2023-04-15T19:36:21.384Z,4.97
2023-04-15T19:38:47.946Z,6.57
2023-04-15T19:41:15.536Z,8.70
2023-04-15T19:43:42.123Z,5.20
2023-04-15T19:46:08.795Z,4.35
2023-04-15T19:48:35.431Z,4.63
2023-04-15T19:51:02.007Z,5.30
2023-04-15T19:53:29.268Z,5.40
2023-04-15T19:55:56.011Z,7.55
2023-04-15T19:58:22.546Z,7.55
2023-04-15T20:00:49.116Z,10.38
2023-04-15T20:03:16.245Z,6.80
2023-04-15T20:05:42.830Z,4.05
2023-04-15T20:08:09.351Z,5.57
2023-04-15T20:10:37.023Z,4.68
2023-04-15T20:13:03.687Z,6.28
2023-04-15T20:15:30.777Z,3.90
2023-04-15T20:17:57.516Z,5.50
2023-04-15T20:20:24.059Z,3.25
2023-04-15T20:22:51.049Z,7.60
2023-04-15T20:25:17.675Z,7.75
2023-04-15T20:27:44.497Z,9.35
2023-04-15T20:30:11.299Z,9.35
2023-04-15T20:32:38.678Z,6.05
2023-04-15T20:35:06.974Z,4.13
2023-04-15T20:37:33.846Z,6.28
2023-04-15T20:40:01.236Z,4.35
2023-04-15T20:42:33.613Z,6.68
2023-04-15T20:45:00.581Z,5.35
2023-04-15T20:47:27.190Z,9.82
2023-04-15T20:49:53.902Z,8.40
2023-04-15T20:52:20.782Z,6.72
2023-04-15T20:54:47.288Z,7.20
2023-04-15T20:57:13.760Z,6.57
2023-04-15T20:59:40.381Z,6.63
2023-04-15T21:02:07.156Z,8.75
2023-04-15T21:04:33.833Z,7.85
2023-04-15T21:07:00.354Z,7.97
2023-04-15T21:09:26.860Z,6.93
2023-04-15T21:12:01.067Z,5.63
2023-04-15T21:14:28.634Z,6.88
2023-04-15T21:16:56.835Z,10.32
2023-04-15T21:19:23.352Z,9.02
2023-04-15T21:21:50.031Z,8.05
2023-04-15T21:24:16.608Z,12.13
2023-04-15T21:26:43.120Z,6.53
2023-04-15T21:29:11.612Z,4.15
2023-04-15T21:31:38.879Z,7.43
2023-04-15T21:34:05.449Z,4.28
2023-04-15T21:36:31.955Z,4.10
2023-04-15T21:38:58.538Z,5.18
2023-04-15T21:41:25.287Z,8.48
2023-04-15T21:43:51.942Z,7.20
2023-04-15T21:46:22.697Z,8.63
2023-04-15T21:48:52.729Z,6.40
2023-04-15T21:51:19.304Z,8.00
2023-04-15T21:53:45.924Z,7.78
2023-04-15T21:56:12.484Z,9.73
2023-04-15T21:58:39.056Z,7.45
2023-04-15T22:01:05.697Z,4.45
2023-04-15T22:03:34.251Z,5.32
2023-04-15T22:06:02.354Z,5.93
2023-04-15T22:08:28.957Z,7.78
2023-04-15T22:10:55.595Z,7.95
2023-04-15T22:13:22.224Z,7.00
2023-04-15T22:15:48.836Z,3.85
2023-04-15T22:18:15.550Z,7.00
2023-04-15T22:20:42.192Z,4.18
2023-04-15T22:23:09.799Z,4.35
2023-04-15T22:25:37.523Z,4.15
2023-04-15T22:28:06.898Z,5.97
2023-04-15T22:30:37.887Z,5.45
2023-04-15T22:33:05.749Z,6.15
2023-04-15T22:35:32.528Z,5.43
2023-04-15T22:37:59.023Z,7.30
2023-04-15T22:40:25.735Z,8.50
2023-04-15T22:42:52.410Z,8.65
2023-04-15T22:45:18.939Z,7.88
2023-04-15T22:47:45.698Z,5.50
2023-04-15T22:50:12.774Z,7.60
2023-04-15T22:52:39.408Z,12.52
2023-04-15T22:55:06.801Z,11.70
2023-04-15T22:57:33.345Z,10.50
2023-04-15T23:00:00.212Z,14.13
2023-04-15T23:02:27.184Z,9.45
2023-04-15T23:04:53.995Z,6.25
2023-04-15T23:07:20.650Z,9.52
2023-04-15T23:09:47.188Z,6.45
2023-04-15T23:12:14.015Z,8.52
2023-04-15T23:14:40.492Z,6.78
2023-04-15T23:17:07.097Z,10.50
2023-04-15T23:19:33.589Z,7.32
2023-04-15T23:22:00.354Z,11.00
2023-04-15T23:24:26.813Z,8.23
2023-04-15T23:26:53.330Z,7.65
2023-04-15T23:29:19.843Z,6.60
2023-04-15T23:31:46.404Z,11.23
2023-04-15T23:34:12.831Z,9.55
2023-04-15T23:36:39.323Z,10.43
2023-04-15T23:39:05.926Z,10.20
2023-04-15T23:41:32.437Z,7.40
2023-04-15T23:43:58.950Z,9.40
2023-04-15T23:46:25.558Z,7.80
2023-04-15T23:48:52.037Z,9.48
2023-04-15T23:51:18.508Z,8.13
2023-04-15T23:53:45.059Z,10.88
2023-04-15T23:56:11.566Z,8.30
2023-04-15T23:58:38.034Z,11.80
